sensor_id;sensor_type;location;lat;lon;timestamp;temperature;humidity
78516;SHT31;67815;51.990;5.688;2023-06-14T00:01:15;23.4;34.0
78516;SHT31;67815;51.990;5.688;2023-06-14T00:03:47;23.4;34.3
78516;SHT31;67815;51.990;5.688;2023-06-14T00:06:17;23.4;34.4
78516;SHT31;67815;51.990;5.688;2023-06-14T00:08:48;23.4;34.4
78516;SHT31;67815;51.990;5.688;2023-06-14T00:11:18;23.3;34.4
78516;SHT31;67815;51.990;5.688;2023-06-14T00:13:50;23.3;34.5
78516;SHT31;67815;51.990;5.688;2023-06-14T00:16:19;23.3;34.4
78516;SHT31;67815;51.990;5.688;2023-06-14T00:18:50;23.2;34.7
78516;SHT31;67815;51.990;5.688;2023-06-14T00:21:20;23.2;34.7
78516;SHT31;67815;51.990;5.688;2023-06-14T00:23:50;23.2;34.7
78516;SHT31;67815;51.990;5.688;2023-06-14T00:26:19;23.1;34.7
78516;SHT31;67815;51.990;5.688;2023-06-14T00:28:49;23.1;34.7
78516;SHT31;67815;51.990;5.688;2023-06-14T00:31:19;23.0;35.0
78516;SHT31;67815;51.990;5.688;2023-06-14T00:33:49;23.0;34.9
78516;SHT31;67815;51.990;5.688;2023-06-14T00:36:20;23.0;35.0
78516;SHT31;67815;51.990;5.688;2023-06-14T00:38:50;23.0;35.3
78516;SHT31;67815;51.990;5.688;2023-06-14T00:41:20;22.9;35.2
78516;SHT31;67815;51.990;5.688;2023-06-14T00:43:50;22.9;35.4
78516;SHT31;67815;51.990;5.688;2023-06-14T00:46:23;22.9;35.8
78516;SHT31;67815;51.990;5.688;2023-06-14T00:48:55;22.9;35.7
78516;SHT31;67815;51.990;5.688;2023-06-14T00:51:25;22.8;35.7
78516;SHT31;67815;51.990;5.688;2023-06-14T00:53:57;22.8;35.5
78516;SHT31;67815;51.990;5.688;2023-06-14T00:56:27;22.8;36.1
78516;SHT31;67815;51.990;5.688;2023-06-14T00:58:58;22.7;36.1
78516;SHT31;67815;51.990;5.688;2023-06-14T01:01:28;22.7;35.9
78516;SHT31;67815;51.990;5.688;2023-06-14T01:04:01;22.7;36.3
78516;SHT31;67815;51.990;5.688;2023-06-14T01:06:37;22.7;36.2
78516;SHT31;67815;51.990;5.688;2023-06-14T01:09:21;22.6;36.5
78516;SHT31;67815;51.990;5.688;2023-06-14T01:11:59;22.6;36.7
78516;SHT31;67815;51.990;5.688;2023-06-14T01:14:31;22.5;36.5
78516;SHT31;67815;51.990;5.688;2023-06-14T01:17:02;22.5;36.5
78516;SHT31;67815;51.990;5.688;2023-06-14T01:19:32;22.5;36.6
78516;SHT31;67815;51.990;5.688;2023-06-14T01:22:05;22.4;36.7
78516;SHT31;67815;51.990;5.688;2023-06-14T01:24:35;22.4;36.7
78516;SHT31;67815;51.990;5.688;2023-06-14T01:27:08;22.4;37.0
78516;SHT31;67815;51.990;5.688;2023-06-14T01:29:40;22.4;36.9
78516;SHT31;67815;51.990;5.688;2023-06-14T01:32:14;22.3;36.5
78516;SHT31;67815;51.990;5.688;2023-06-14T01:34:45;22.3;37.0
78516;SHT31;67815;51.990;5.688;2023-06-14T01:37:16;22.2;37.0
78516;SHT31;67815;51.990;5.688;2023-06-14T01:39:47;22.2;37.2
78516;SHT31;67815;51.990;5.688;2023-06-14T01:42:20;22.2;37.2
78516;SHT31;67815;51.990;5.688;2023-06-14T01:44:55;22.2;37.4
78516;SHT31;67815;51.990;5.688;2023-06-14T01:47:25;22.1;37.6
78516;SHT31;67815;51.990;5.688;2023-06-14T01:49:57;22.1;37.6
78516;SHT31;67815;51.990;5.688;2023-06-14T01:52:29;22.1;37.7
78516;SHT31;67815;51.990;5.688;2023-06-14T01:54:59;22.0;37.7
78516;SHT31;67815;51.990;5.688;2023-06-14T01:57:32;22.0;37.7
78516;SHT31;67815;51.990;5.688;2023-06-14T02:00:02;22.0;38.0
78516;SHT31;67815;51.990;5.688;2023-06-14T02:02:33;21.9;38.1
78516;SHT31;67815;51.990;5.688;2023-06-14T02:05:03;21.9;37.7
78516;SHT31;67815;51.990;5.688;2023-06-14T02:07:33;21.9;38.0
78516;SHT31;67815;51.990;5.688;2023-06-14T02:10:04;21.8;38.5
78516;SHT31;67815;51.990;5.688;2023-06-14T02:12:36;21.8;38.4
78516;SHT31;67815;51.990;5.688;2023-06-14T02:15:06;21.8;38.1
78516;SHT31;67815;51.990;5.688;2023-06-14T02:17:37;21.8;38.3
78516;SHT31;67815;51.990;5.688;2023-06-14T02:20:09;21.7;38.3
78516;SHT31;67815;51.990;5.688;2023-06-14T02:22:39;21.7;38.6
78516;SHT31;67815;51.990;5.688;2023-06-14T02:25:09;21.7;38.7
78516;SHT31;67815;51.990;5.688;2023-06-14T02:27:41;21.6;38.6
78516;SHT31;67815;51.990;5.688;2023-06-14T02:30:11;21.6;38.5
78516;SHT31;67815;51.990;5.688;2023-06-14T02:32:43;21.6;39.1
78516;SHT31;67815;51.990;5.688;2023-06-14T02:35:13;21.5;38.8
78516;SHT31;67815;51.990;5.688;2023-06-14T02:37:44;21.5;39.0
78516;SHT31;67815;51.990;5.688;2023-06-14T02:40:13;21.5;39.1
78516;SHT31;67815;51.990;5.688;2023-06-14T02:42:43;21.5;39.0
78516;SHT31;67815;51.990;5.688;2023-06-14T02:45:13;21.4;39.4
78516;SHT31;67815;51.990;5.688;2023-06-14T02:47:45;21.4;39.5
78516;SHT31;67815;51.990;5.688;2023-06-14T02:50:15;21.4;39.4
78516;SHT31;67815;51.990;5.688;2023-06-14T02:52:45;21.3;39.8
78516;SHT31;67815;51.990;5.688;2023-06-14T02:55:15;21.3;39.2
78516;SHT31;67815;51.990;5.688;2023-06-14T02:57:44;21.3;39.5
78516;SHT31;67815;51.990;5.688;2023-06-14T03:00:19;21.2;39.7
78516;SHT31;67815;51.990;5.688;2023-06-14T03:02:48;21.2;39.7
78516;SHT31;67815;51.990;5.688;2023-06-14T03:05:19;21.2;39.7
78516;SHT31;67815;51.990;5.688;2023-06-14T03:07:49;21.1;39.7
78516;SHT31;67815;51.990;5.688;2023-06-14T03:10:21;21.1;40.0
78516;SHT31;67815;51.990;5.688;2023-06-14T03:12:51;21.0;40.2
78516;SHT31;67815;51.990;5.688;2023-06-14T03:15:21;21.0;40.2
78516;SHT31;67815;51.990;5.688;2023-06-14T03:17:51;21.0;40.3
78516;SHT31;67815;51.990;5.688;2023-06-14T03:20:21;20.9;40.1
78516;SHT31;67815;51.990;5.688;2023-06-14T03:22:51;20.9;40.2
78516;SHT31;67815;51.990;5.688;2023-06-14T03:25:21;20.9;40.5
78516;SHT31;67815;51.990;5.688;2023-06-14T03:27:51;20.8;40.2
78516;SHT31;67815;51.990;5.688;2023-06-14T03:30:21;20.8;40.2
78516;SHT31;67815;51.990;5.688;2023-06-14T03:32:50;20.8;40.4
78516;SHT31;67815;51.990;5.688;2023-06-14T03:35:23;20.7;40.7
78516;SHT31;67815;51.990;5.688;2023-06-14T03:37:53;20.7;40.4
78516;SHT31;67815;51.990;5.688;2023-06-14T03:40:23;20.7;40.8
78516;SHT31;67815;51.990;5.688;2023-06-14T03:42:55;20.6;40.7
78516;SHT31;67815;51.990;5.688;2023-06-14T03:45:24;20.6;40.9
78516;SHT31;67815;51.990;5.688;2023-06-14T03:47:54;20.6;41.4
78516;SHT31;67815;51.990;5.688;2023-06-14T03:50:24;20.5;41.3
78516;SHT31;67815;51.990;5.688;2023-06-14T03:52:54;20.5;41.6
78516;SHT31;67815;51.990;5.688;2023-06-14T03:55:24;20.5;41.5
78516;SHT31;67815;51.990;5.688;2023-06-14T03:57:55;20.4;42.0
78516;SHT31;67815;51.990;5.688;2023-06-14T04:00:26;20.4;42.2
78516;SHT31;67815;51.990;5.688;2023-06-14T04:02:55;20.4;41.8
78516;SHT31;67815;51.990;5.688;2023-06-14T04:05:26;20.4;41.8
78516;SHT31;67815;51.990;5.688;2023-06-14T04:07:55;20.3;42.2
78516;SHT31;67815;51.990;5.688;2023-06-14T04:10:26;20.3;42.5
78516;SHT31;67815;51.990;5.688;2023-06-14T04:12:57;20.3;42.3
78516;SHT31;67815;51.990;5.688;2023-06-14T04:15:27;20.3;42.5
78516;SHT31;67815;51.990;5.688;2023-06-14T04:17:57;20.2;42.8
78516;SHT31;67815;51.990;5.688;2023-06-14T04:20:28;20.2;42.9
78516;SHT31;67815;51.990;5.688;2023-06-14T04:23:14;20.2;43.0
78516;SHT31;67815;51.990;5.688;2023-06-14T04:25:45;20.2;43.1
78516;SHT31;67815;51.990;5.688;2023-06-14T04:28:16;20.2;43.1
78516;SHT31;67815;51.990;5.688;2023-06-14T04:30:47;20.1;43.2
78516;SHT31;67815;51.990;5.688;2023-06-14T04:33:16;20.1;43.1
78516;SHT31;67815;51.990;5.688;2023-06-14T04:35:46;20.1;43.3
78516;SHT31;67815;51.990;5.688;2023-06-14T04:38:16;20.1;43.2
78516;SHT31;67815;51.990;5.688;2023-06-14T04:40:46;20.1;43.5
78516;SHT31;67815;51.990;5.688;2023-06-14T04:43:15;20.1;43.6
78516;SHT31;67815;51.990;5.688;2023-06-14T04:45:46;20.1;44.2
78516;SHT31;67815;51.990;5.688;2023-06-14T04:48:16;20.1;43.7
78516;SHT31;67815;51.990;5.688;2023-06-14T04:50:48;20.1;44.1
78516;SHT31;67815;51.990;5.688;2023-06-14T04:53:20;20.1;43.8
78516;SHT31;67815;51.990;5.688;2023-06-14T04:55:51;20.1;44.2
78516;SHT31;67815;51.990;5.688;2023-06-14T04:58:20;20.1;44.2
78516;SHT31;67815;51.990;5.688;2023-06-14T05:00:50;20.1;43.9
78516;SHT31;67815;51.990;5.688;2023-06-14T05:03:20;20.1;43.9
78516;SHT31;67815;51.990;5.688;2023-06-14T05:05:51;20.1;44.3
78516;SHT31;67815;51.990;5.688;2023-06-14T05:08:22;20.1;44.0
78516;SHT31;67815;51.990;5.688;2023-06-14T05:10:53;20.1;44.4
78516;SHT31;67815;51.990;5.688;2023-06-14T05:13:24;20.1;44.7
78516;SHT31;67815;51.990;5.688;2023-06-14T05:15:55;20.1;44.6
78516;SHT31;67815;51.990;5.688;2023-06-14T05:18:25;20.1;44.5
78516;SHT31;67815;51.990;5.688;2023-06-14T05:20:55;20.1;43.6
78516;SHT31;67815;51.990;5.688;2023-06-14T05:23:25;20.1;43.9
78516;SHT31;67815;51.990;5.688;2023-06-14T05:25:55;20.1;44.5
78516;SHT31;67815;51.990;5.688;2023-06-14T05:28:27;20.1;44.0
78516;SHT31;67815;51.990;5.688;2023-06-14T05:30:58;20.1;44.1
78516;SHT31;67815;51.990;5.688;2023-06-14T05:33:28;20.1;44.1
78516;SHT31;67815;51.990;5.688;2023-06-14T05:35:58;20.1;44.4
78516;SHT31;67815;51.990;5.688;2023-06-14T05:38:27;20.1;43.9
78516;SHT31;67815;51.990;5.688;2023-06-14T05:40:57;20.2;44.5
78516;SHT31;67815;51.990;5.688;2023-06-14T05:43:26;20.2;44.5
78516;SHT31;67815;51.990;5.688;2023-06-14T05:45:56;20.2;43.8
78516;SHT31;67815;51.990;5.688;2023-06-14T05:48:26;20.2;44.1
78516;SHT31;67815;51.990;5.688;2023-06-14T05:50:55;20.2;44.1
78516;SHT31;67815;51.990;5.688;2023-06-14T05:53:25;20.3;44.2
78516;SHT31;67815;51.990;5.688;2023-06-14T05:55:54;20.3;44.2
78516;SHT31;67815;51.990;5.688;2023-06-14T05:58:24;20.3;44.3
78516;SHT31;67815;51.990;5.688;2023-06-14T06:00:53;20.4;44.5
78516;SHT31;67815;51.990;5.688;2023-06-14T06:03:27;20.4;44.4
78516;SHT31;67815;51.990;5.688;2023-06-14T06:05:58;20.4;44.6
78516;SHT31;67815;51.990;5.688;2023-06-14T06:08:28;20.5;44.2
78516;SHT31;67815;51.990;5.688;2023-06-14T06:10:58;20.5;44.8
78516;SHT31;67815;51.990;5.688;2023-06-14T06:13:29;20.5;44.2
78516;SHT31;67815;51.990;5.688;2023-06-14T06:15:58;20.6;44.4
78516;SHT31;67815;51.990;5.688;2023-06-14T06:18:28;20.6;44.1
78516;SHT31;67815;51.990;5.688;2023-06-14T06:20:58;20.7;44.1
78516;SHT31;67815;51.990;5.688;2023-06-14T06:23:27;20.7;43.9
78516;SHT31;67815;51.990;5.688;2023-06-14T06:25:57;20.8;43.3
78516;SHT31;67815;51.990;5.688;2023-06-14T06:28:28;20.8;43.5
78516;SHT31;67815;51.990;5.688;2023-06-14T06:30:58;20.9;42.9
78516;SHT31;67815;51.990;5.688;2023-06-14T06:33:28;20.9;42.9
78516;SHT31;67815;51.990;5.688;2023-06-14T06:35:58;21.0;43.2
78516;SHT31;67815;51.990;5.688;2023-06-14T06:38:28;21.0;43.2
78516;SHT31;67815;51.990;5.688;2023-06-14T06:40:58;21.0;43.0
78516;SHT31;67815;51.990;5.688;2023-06-14T06:43:28;21.1;43.2
78516;SHT31;67815;51.990;5.688;2023-06-14T06:45:57;21.1;43.6
78516;SHT31;67815;51.990;5.688;2023-06-14T06:48:27;21.2;42.9
78516;SHT31;67815;51.990;5.688;2023-06-14T06:50:56;21.2;43.0
78516;SHT31;67815;51.990;5.688;2023-06-14T06:53:26;21.3;42.3
78516;SHT31;67815;51.990;5.688;2023-06-14T06:55:55;21.3;42.1
78516;SHT31;67815;51.990;5.688;2023-06-14T06:58:25;21.4;42.2
78516;SHT31;67815;51.990;5.688;2023-06-14T07:00:54;21.5;42.3
78516;SHT31;67815;51.990;5.688;2023-06-14T07:03:24;21.5;42.6
78516;SHT31;67815;51.990;5.688;2023-06-14T07:05:54;21.6;41.7
78516;SHT31;67815;51.990;5.688;2023-06-14T07:08:23;21.6;42.1
78516;SHT31;67815;51.990;5.688;2023-06-14T07:10:53;21.7;42.3
78516;SHT31;67815;51.990;5.688;2023-06-14T07:13:22;21.7;42.5
78516;SHT31;67815;51.990;5.688;2023-06-14T07:15:54;21.8;42.2
78516;SHT31;67815;51.990;5.688;2023-06-14T07:18:24;21.8;42.5
78516;SHT31;67815;51.990;5.688;2023-06-14T07:20:54;21.9;41.8
78516;SHT31;67815;51.990;5.688;2023-06-14T07:23:24;21.9;40.8
78516;SHT31;67815;51.990;5.688;2023-06-14T07:25:54;22.0;40.4
78516;SHT31;67815;51.990;5.688;2023-06-14T07:28:24;22.0;40.2
78516;SHT31;67815;51.990;5.688;2023-06-14T07:30:53;22.1;40.3
78516;SHT31;67815;51.990;5.688;2023-06-14T07:33:23;22.1;40.4
78516;SHT31;67815;51.990;5.688;2023-06-14T07:35:53;22.1;41.0
78516;SHT31;67815;51.990;5.688;2023-06-14T07:38:23;22.2;39.6
78516;SHT31;67815;51.990;5.688;2023-06-14T07:40:52;22.2;40.1
78516;SHT31;67815;51.990;5.688;2023-06-14T07:43:22;22.3;39.7
78516;SHT31;67815;51.990;5.688;2023-06-14T07:45:52;22.3;39.9
78516;SHT31;67815;51.990;5.688;2023-06-14T07:48:22;22.4;39.1
78516;SHT31;67815;51.990;5.688;2023-06-14T07:50:52;22.4;39.3
78516;SHT31;67815;51.990;5.688;2023-06-14T07:53:22;22.5;38.3
78516;SHT31;67815;51.990;5.688;2023-06-14T07:55:52;22.5;37.9
78516;SHT31;67815;51.990;5.688;2023-06-14T07:58:22;22.5;38.3
78516;SHT31;67815;51.990;5.688;2023-06-14T08:00:52;22.6;38.4
78516;SHT31;67815;51.990;5.688;2023-06-14T08:03:22;22.6;38.7
78516;SHT31;67815;51.990;5.688;2023-06-14T08:05:53;22.7;39.0
78516;SHT31;67815;51.990;5.688;2023-06-14T08:08:23;22.7;38.3
78516;SHT31;67815;51.990;5.688;2023-06-14T08:10:53;22.8;38.4
78516;SHT31;67815;51.990;5.688;2023-06-14T08:13:22;22.8;37.8
78516;SHT31;67815;51.990;5.688;2023-06-14T08:15:52;22.9;37.8
78516;SHT31;67815;51.990;5.688;2023-06-14T08:18:22;22.9;37.7
78516;SHT31;67815;51.990;5.688;2023-06-14T08:20:52;23.0;37.2
78516;SHT31;67815;51.990;5.688;2023-06-14T08:23:22;23.0;37.3
78516;SHT31;67815;51.990;5.688;2023-06-14T08:25:53;23.0;37.8
78516;SHT31;67815;51.990;5.688;2023-06-14T08:28:24;23.1;37.2
78516;SHT31;67815;51.990;5.688;2023-06-14T08:30:53;23.1;36.2
78516;SHT31;67815;51.990;5.688;2023-06-14T08:33:23;23.2;35.5
78516;SHT31;67815;51.990;5.688;2023-06-14T08:35:54;23.2;35.5
78516;SHT31;67815;51.990;5.688;2023-06-14T08:38:24;23.3;36.3
78516;SHT31;67815;51.990;5.688;2023-06-14T08:40:57;23.3;35.1
78516;SHT31;67815;51.990;5.688;2023-06-14T08:43:27;23.4;35.7
78516;SHT31;67815;51.990;5.688;2023-06-14T08:46:00;23.4;35.9
78516;SHT31;67815;51.990;5.688;2023-06-14T08:48:31;23.4;35.5
78516;SHT31;67815;51.990;5.688;2023-06-14T08:51:03;23.5;34.8
78516;SHT31;67815;51.990;5.688;2023-06-14T08:53:36;23.5;34.6
78516;SHT31;67815;51.990;5.688;2023-06-14T08:56:09;23.6;34.4
78516;SHT31;67815;51.990;5.688;2023-06-14T08:58:44;23.6;34.8
78516;SHT31;67815;51.990;5.688;2023-06-14T09:01:16;23.6;33.9
78516;SHT31;67815;51.990;5.688;2023-06-14T09:03:47;23.7;33.1
78516;SHT31;67815;51.990;5.688;2023-06-14T09:06:17;23.7;33.4
78516;SHT31;67815;51.990;5.688;2023-06-14T09:08:51;23.7;34.6
78516;SHT31;67815;51.990;5.688;2023-06-14T09:11:21;23.8;33.8
78516;SHT31;67815;51.990;5.688;2023-06-14T09:13:51;23.8;32.0
78516;SHT31;67815;51.990;5.688;2023-06-14T09:16:23;23.8;32.9
78516;SHT31;67815;51.990;5.688;2023-06-14T09:18:54;23.8;32.8
78516;SHT31;67815;51.990;5.688;2023-06-14T09:21:25;23.8;32.8
78516;SHT31;67815;51.990;5.688;2023-06-14T09:23:55;23.9;32.9
78516;SHT31;67815;51.990;5.688;2023-06-14T09:26:25;23.9;33.0
78516;SHT31;67815;51.990;5.688;2023-06-14T09:28:55;23.9;33.4
78516;SHT31;67815;51.990;5.688;2023-06-14T09:31:24;24.0;33.4
78516;SHT31;67815;51.990;5.688;2023-06-14T09:34:02;24.0;33.9
78516;SHT31;67815;51.990;5.688;2023-06-14T09:36:32;24.0;33.0
78516;SHT31;67815;51.990;5.688;2023-06-14T09:39:04;24.1;32.3
78516;SHT31;67815;51.990;5.688;2023-06-14T09:41:37;24.1;32.5
78516;SHT31;67815;51.990;5.688;2023-06-14T09:44:09;24.1;32.3
78516;SHT31;67815;51.990;5.688;2023-06-14T09:46:39;24.2;32.1
78516;SHT31;67815;51.990;5.688;2023-06-14T09:49:09;24.2;32.6
78516;SHT31;67815;51.990;5.688;2023-06-14T09:51:43;24.3;33.3
78516;SHT31;67815;51.990;5.688;2023-06-14T09:54:16;24.5;32.0
78516;SHT31;67815;51.990;5.688;2023-06-14T09:56:51;24.7;31.5
78516;SHT31;67815;51.990;5.688;2023-06-14T09:59:26;25.0;31.9
78516;SHT31;67815;51.990;5.688;2023-06-14T10:02:04;25.1;32.2
78516;SHT31;67815;51.990;5.688;2023-06-14T10:04:37;25.2;32.0
78516;SHT31;67815;51.990;5.688;2023-06-14T10:07:09;25.3;31.6
78516;SHT31;67815;51.990;5.688;2023-06-14T10:09:41;25.3;32.3
78516;SHT31;67815;51.990;5.688;2023-06-14T10:12:16;25.4;31.4
78516;SHT31;67815;51.990;5.688;2023-06-14T10:14:50;25.4;30.7
78516;SHT31;67815;51.990;5.688;2023-06-14T10:17:27;25.4;30.3
78516;SHT31;67815;51.990;5.688;2023-06-14T10:20:23;25.4;30.4
78516;SHT31;67815;51.990;5.688;2023-06-14T10:23:01;25.3;30.4
78516;SHT31;67815;51.990;5.688;2023-06-14T10:25:33;25.3;30.5
78516;SHT31;67815;51.990;5.688;2023-06-14T10:28:16;25.3;31.9
78516;SHT31;67815;51.990;5.688;2023-06-14T10:31:06;25.3;33.1
78516;SHT31;67815;51.990;5.688;2023-06-14T10:33:39;25.3;32.0
78516;SHT31;67815;51.990;5.688;2023-06-14T10:36:27;25.3;32.0
78516;SHT31;67815;51.990;5.688;2023-06-14T10:39:05;25.3;32.2
78516;SHT31;67815;51.990;5.688;2023-06-14T10:41:40;25.3;31.1
78516;SHT31;67815;51.990;5.688;2023-06-14T10:44:41;25.3;30.9
78516;SHT31;67815;51.990;5.688;2023-06-14T10:47:23;25.3;31.4
78516;SHT31;67815;51.990;5.688;2023-06-14T10:49:55;25.3;31.0
78516;SHT31;67815;51.990;5.688;2023-06-14T10:52:29;25.3;30.7
78516;SHT31;67815;51.990;5.688;2023-06-14T10:55:04;25.3;31.3
78516;SHT31;67815;51.990;5.688;2023-06-14T10:57:38;25.3;31.5
78516;SHT31;67815;51.990;5.688;2023-06-14T11:00:10;25.4;32.6
78516;SHT31;67815;51.990;5.688;2023-06-14T11:05:02;25.4;31.1
78516;SHT31;67815;51.990;5.688;2023-06-14T11:07:48;25.4;31.0
78516;SHT31;67815;51.990;5.688;2023-06-14T11:10:30;25.5;30.4
78516;SHT31;67815;51.990;5.688;2023-06-14T11:13:03;25.5;30.5
78516;SHT31;67815;51.990;5.688;2023-06-14T11:15:35;25.6;30.3
78516;SHT31;67815;51.990;5.688;2023-06-14T11:18:07;25.6;30.5
78516;SHT31;67815;51.990;5.688;2023-06-14T11:20:37;25.6;30.6
78516;SHT31;67815;51.990;5.688;2023-06-14T11:23:07;25.7;31.3
78516;SHT31;67815;51.990;5.688;2023-06-14T11:25:37;25.7;31.1
78516;SHT31;67815;51.990;5.688;2023-06-14T11:28:07;25.8;29.9
78516;SHT31;67815;51.990;5.688;2023-06-14T11:30:37;25.8;29.8
78516;SHT31;67815;51.990;5.688;2023-06-14T11:33:09;25.9;30.7
78516;SHT31;67815;51.990;5.688;2023-06-14T11:35:42;25.9;30.4
78516;SHT31;67815;51.990;5.688;2023-06-14T11:38:13;26.0;29.4
78516;SHT31;67815;51.990;5.688;2023-06-14T11:40:43;26.1;30.5
78516;SHT31;67815;51.990;5.688;2023-06-14T11:43:12;26.1;29.3
78516;SHT31;67815;51.990;5.688;2023-06-14T11:45:43;26.2;29.8
78516;SHT31;67815;51.990;5.688;2023-06-14T11:48:12;26.2;30.4
78516;SHT31;67815;51.990;5.688;2023-06-14T11:50:43;26.3;29.7
78516;SHT31;67815;51.990;5.688;2023-06-14T11:53:14;26.3;29.2
78516;SHT31;67815;51.990;5.688;2023-06-14T11:55:45;26.4;29.4
78516;SHT31;67815;51.990;5.688;2023-06-14T11:58:15;26.4;30.0
78516;SHT31;67815;51.990;5.688;2023-06-14T12:00:44;26.5;29.9
78516;SHT31;67815;51.990;5.688;2023-06-14T12:03:24;26.5;30.3
78516;SHT31;67815;51.990;5.688;2023-06-14T12:06:08;26.6;30.0
78516;SHT31;67815;51.990;5.688;2023-06-14T12:08:39;26.6;29.8
78516;SHT31;67815;51.990;5.688;2023-06-14T12:11:11;26.7;29.6
78516;SHT31;67815;51.990;5.688;2023-06-14T12:13:43;26.7;29.3
78516;SHT31;67815;51.990;5.688;2023-06-14T12:16:13;26.8;29.2
78516;SHT31;67815;51.990;5.688;2023-06-14T12:18:42;26.8;29.6
78516;SHT31;67815;51.990;5.688;2023-06-14T12:21:13;26.9;30.5
78516;SHT31;67815;51.990;5.688;2023-06-14T12:23:46;26.9;30.0
78516;SHT31;67815;51.990;5.688;2023-06-14T12:26:19;26.9;29.6
78516;SHT31;67815;51.990;5.688;2023-06-14T12:28:48;26.9;29.9
78516;SHT31;67815;51.990;5.688;2023-06-14T12:31:18;26.9;30.4
78516;SHT31;67815;51.990;5.688;2023-06-14T12:33:48;26.9;29.9
78516;SHT31;67815;51.990;5.688;2023-06-14T12:36:19;27.0;30.2
78516;SHT31;67815;51.990;5.688;2023-06-14T12:38:49;27.0;30.3
78516;SHT31;67815;51.990;5.688;2023-06-14T12:41:21;27.0;30.1
78516;SHT31;67815;51.990;5.688;2023-06-14T12:43:52;27.0;29.6
78516;SHT31;67815;51.990;5.688;2023-06-14T12:46:22;27.1;29.8
78516;SHT31;67815;51.990;5.688;2023-06-14T12:48:52;27.1;29.5
78516;SHT31;67815;51.990;5.688;2023-06-14T12:51:21;27.2;29.5
78516;SHT31;67815;51.990;5.688;2023-06-14T12:53:52;27.2;28.5
78516;SHT31;67815;51.990;5.688;2023-06-14T12:56:22;27.2;28.6
78516;SHT31;67815;51.990;5.688;2023-06-14T12:58:53;27.3;28.1
78516;SHT31;67815;51.990;5.688;2023-06-14T13:01:26;27.3;28.6
78516;SHT31;67815;51.990;5.688;2023-06-14T13:03:55;27.3;29.0
78516;SHT31;67815;51.990;5.688;2023-06-14T13:06:25;27.3;29.2
78516;SHT31;67815;51.990;5.688;2023-06-14T13:08:57;27.4;27.8
78516;SHT31;67815;51.990;5.688;2023-06-14T13:11:29;27.4;28.9
78516;SHT31;67815;51.990;5.688;2023-06-14T13:13:59;27.4;29.0
78516;SHT31;67815;51.990;5.688;2023-06-14T13:16:29;27.5;29.7
78516;SHT31;67815;51.990;5.688;2023-06-14T13:18:59;27.5;29.5
78516;SHT31;67815;51.990;5.688;2023-06-14T13:21:28;27.5;29.5
78516;SHT31;67815;51.990;5.688;2023-06-14T13:23:58;27.6;29.7
78516;SHT31;67815;51.990;5.688;2023-06-14T13:26:27;27.6;29.9
78516;SHT31;67815;51.990;5.688;2023-06-14T13:28:57;27.6;29.8
78516;SHT31;67815;51.990;5.688;2023-06-14T13:31:27;27.6;29.0
78516;SHT31;67815;51.990;5.688;2023-06-14T13:33:56;27.6;29.0
78516;SHT31;67815;51.990;5.688;2023-06-14T13:36:26;27.7;29.4
78516;SHT31;67815;51.990;5.688;2023-06-14T13:38:58;27.7;29.5
78516;SHT31;67815;51.990;5.688;2023-06-14T13:41:28;27.7;28.9
78516;SHT31;67815;51.990;5.688;2023-06-14T13:44:01;27.8;29.5
78516;SHT31;67815;51.990;5.688;2023-06-14T13:46:33;27.8;28.0
78516;SHT31;67815;51.990;5.688;2023-06-14T13:49:03;27.9;29.2
78516;SHT31;67815;51.990;5.688;2023-06-14T13:51:35;27.9;28.9
78516;SHT31;67815;51.990;5.688;2023-06-14T13:54:05;27.9;28.5
78516;SHT31;67815;51.990;5.688;2023-06-14T13:56:35;28.0;28.0
78516;SHT31;67815;51.990;5.688;2023-06-14T13:59:05;28.0;28.4
78516;SHT31;67815;51.990;5.688;2023-06-14T14:01:35;28.1;27.5
78516;SHT31;67815;51.990;5.688;2023-06-14T14:04:06;28.1;28.0
78516;SHT31;67815;51.990;5.688;2023-06-14T14:06:36;28.1;28.3
78516;SHT31;67815;51.990;5.688;2023-06-14T14:09:05;28.1;28.7
78516;SHT31;67815;51.990;5.688;2023-06-14T14:11:35;28.2;28.1
78516;SHT31;67815;51.990;5.688;2023-06-14T14:14:07;28.2;28.2
78516;SHT31;67815;51.990;5.688;2023-06-14T14:16:37;28.2;27.5
78516;SHT31;67815;51.990;5.688;2023-06-14T14:19:07;28.3;28.3
78516;SHT31;67815;51.990;5.688;2023-06-14T14:21:39;28.3;28.2
78516;SHT31;67815;51.990;5.688;2023-06-14T14:24:09;28.4;27.7
78516;SHT31;67815;51.990;5.688;2023-06-14T14:26:39;28.4;28.5
78516;SHT31;67815;51.990;5.688;2023-06-14T14:29:08;28.4;28.3
78516;SHT31;67815;51.990;5.688;2023-06-14T14:31:39;28.4;28.5
78516;SHT31;67815;51.990;5.688;2023-06-14T14:34:09;28.5;28.1
78516;SHT31;67815;51.990;5.688;2023-06-14T14:36:38;28.5;28.4
78516;SHT31;67815;51.990;5.688;2023-06-14T14:39:10;28.5;28.1
78516;SHT31;67815;51.990;5.688;2023-06-14T14:41:39;28.6;28.3
78516;SHT31;67815;51.990;5.688;2023-06-14T14:44:11;28.6;27.5
78516;SHT31;67815;51.990;5.688;2023-06-14T14:46:41;28.7;27.6
78516;SHT31;67815;51.990;5.688;2023-06-14T14:49:12;28.7;27.3
78516;SHT31;67815;51.990;5.688;2023-06-14T14:51:41;28.7;27.6
78516;SHT31;67815;51.990;5.688;2023-06-14T14:54:11;28.7;27.2
78516;SHT31;67815;51.990;5.688;2023-06-14T14:56:41;28.8;27.1
78516;SHT31;67815;51.990;5.688;2023-06-14T14:59:12;28.8;27.6
78516;SHT31;67815;51.990;5.688;2023-06-14T15:01:42;28.8;27.3
78516;SHT31;67815;51.990;5.688;2023-06-14T15:04:13;28.8;27.1
78516;SHT31;67815;51.990;5.688;2023-06-14T15:06:42;28.9;27.1
78516;SHT31;67815;51.990;5.688;2023-06-14T15:09:12;28.9;27.7
78516;SHT31;67815;51.990;5.688;2023-06-14T15:11:42;28.9;26.2
78516;SHT31;67815;51.990;5.688;2023-06-14T15:14:12;28.9;26.3
78516;SHT31;67815;51.990;5.688;2023-06-14T15:16:42;28.9;26.2
78516;SHT31;67815;51.990;5.688;2023-06-14T15:19:12;28.9;26.4
78516;SHT31;67815;51.990;5.688;2023-06-14T15:21:41;28.9;26.7
78516;SHT31;67815;51.990;5.688;2023-06-14T15:24:11;29.0;26.9
78516;SHT31;67815;51.990;5.688;2023-06-14T15:26:40;29.0;26.7
78516;SHT31;67815;51.990;5.688;2023-06-14T15:29:10;29.0;27.1
78516;SHT31;67815;51.990;5.688;2023-06-14T15:31:40;29.0;27.3
78516;SHT31;67815;51.990;5.688;2023-06-14T15:34:12;29.0;26.8
78516;SHT31;67815;51.990;5.688;2023-06-14T15:36:41;29.1;26.5
78516;SHT31;67815;51.990;5.688;2023-06-14T15:39:11;29.1;26.7
78516;SHT31;67815;51.990;5.688;2023-06-14T15:41:42;29.1;26.6
78516;SHT31;67815;51.990;5.688;2023-06-14T15:44:13;29.1;26.4
78516;SHT31;67815;51.990;5.688;2023-06-14T15:46:43;29.1;26.2
78516;SHT31;67815;51.990;5.688;2023-06-14T15:49:13;29.1;25.8
78516;SHT31;67815;51.990;5.688;2023-06-14T15:51:43;29.1;26.2
78516;SHT31;67815;51.990;5.688;2023-06-14T15:54:12;29.1;26.4
78516;SHT31;67815;51.990;5.688;2023-06-14T15:56:42;29.0;26.5
78516;SHT31;67815;51.990;5.688;2023-06-14T15:59:11;29.0;26.6
78516;SHT31;67815;51.990;5.688;2023-06-14T16:01:41;29.0;27.3
78516;SHT31;67815;51.990;5.688;2023-06-14T16:04:11;29.0;27.4
78516;SHT31;67815;51.990;5.688;2023-06-14T16:06:40;29.0;27.3
78516;SHT31;67815;51.990;5.688;2023-06-14T16:09:10;29.0;27.4
78516;SHT31;67815;51.990;5.688;2023-06-14T16:11:41;29.0;28.0
78516;SHT31;67815;51.990;5.688;2023-06-14T16:14:11;29.0;27.5
78516;SHT31;67815;51.990;5.688;2023-06-14T16:16:41;29.0;27.3
78516;SHT31;67815;51.990;5.688;2023-06-14T16:19:11;28.9;27.0
78516;SHT31;67815;51.990;5.688;2023-06-14T16:21:41;28.9;27.5
78516;SHT31;67815;51.990;5.688;2023-06-14T16:24:10;28.9;27.5
78516;SHT31;67815;51.990;5.688;2023-06-14T16:26:42;28.8;27.5
78516;SHT31;67815;51.990;5.688;2023-06-14T16:29:12;28.8;27.6